Disclaimer

Please do not use the information listed here in-flight or in-navigation, as they are not provided to us by the airports but are provided by volunteers, so they might be outdated.

Search


Regions


Airport information page

Radio informations:
BOURGUIBA TWR - 118.3 MHz
MONASTIR ATIS - 113.1 MHz
BOURGUIBA APP - 119.3 MHz

Airport informations:
Latitude: 35° 45' 29.00" N
Longitude: 010° 45' 17.00" E
Elevation: 9 feet - 3 meters
Operating hours: Remarks
Operating agency: Civil government, landing fees and diplomatic clearance may be required
Timezone: UTC+1(+2DT) - Dates notified by NOTAM
Fuel: Jet A1, without icing nhibitor.

100/130 MIL Spec, low lead, aviation gasoline (BLUE)

Runway information:
07/25 - 9678 x 148 feet< - >2950 x 45 meters

Recent METARs:
DTMB 130330Z 17003KT 6000 NSC 09/07 Q1017 NOSIG
DTMB 130330Z 17003KT 6000 NSC 09/07 Q1017 NOSIG
DTMB 130330Z 17003KT 6000 NSC 09/07 Q1017 NOSIG

Airport on the map: